sensor_id;sensor_type;location;lat;lon;timestamp;P1;durP1;ratioP1;P2;durP2;ratioP2
74459;SDS011;62902;48.854;9.292;2022-10-14T00:00:29;18.10;;;10.85;;
74459;SDS011;62902;48.854;9.292;2022-10-14T00:02:56;17.05;;;10.15;;
74459;SDS011;62902;48.854;9.292;2022-10-14T00:05:23;18.55;;;10.95;;
74459;SDS011;62902;48.854;9.292;2022-10-14T00:07:49;18.80;;;10.43;;
74459;SDS011;62902;48.854;9.292;2022-10-14T00:10:16;17.95;;;10.32;;
74459;SDS011;62902;48.854;9.292;2022-10-14T00:12:43;21.83;;;10.85;;
74459;SDS011;62902;48.854;9.292;2022-10-14T00:15:09;17.77;;;10.77;;
74459;SDS011;62902;48.854;9.292;2022-10-14T00:17:36;16.65;;;10.30;;
74459;SDS011;62902;48.854;9.292;2022-10-14T00:20:02;17.65;;;10.90;;
74459;SDS011;62902;48.854;9.292;2022-10-14T00:22:29;18.08;;;10.80;;
74459;SDS011;62902;48.854;9.292;2022-10-14T00:24:56;20.38;;;10.40;;
74459;SDS011;62902;48.854;9.292;2022-10-14T00:27:23;17.25;;;10.30;;
74459;SDS011;62902;48.854;9.292;2022-10-14T00:29:50;17.92;;;10.45;;
74459;SDS011;62902;48.854;9.292;2022-10-14T00:32:17;21.00;;;11.30;;
74459;SDS011;62902;48.854;9.292;2022-10-14T00:34:44;17.50;;;10.57;;
74459;SDS011;62902;48.854;9.292;2022-10-14T00:37:10;19.67;;;11.20;;
74459;SDS011;62902;48.854;9.292;2022-10-14T00:39:37;23.65;;;12.30;;
74459;SDS011;62902;48.854;9.292;2022-10-14T00:42:04;21.42;;;11.85;;
74459;SDS011;62902;48.854;9.292;2022-10-14T00:46:57;21.65;;;12.30;;
74459;SDS011;62902;48.854;9.292;2022-10-14T00:49:26;23.40;;;12.45;;
74459;SDS011;62902;48.854;9.292;2022-10-14T00:51:58;18.95;;;11.70;;
74459;SDS011;62902;48.854;9.292;2022-10-14T00:54:28;22.85;;;12.02;;
74459;SDS011;62902;48.854;9.292;2022-10-14T00:56:57;27.65;;;13.45;;
74459;SDS011;62902;48.854;9.292;2022-10-14T00:59:24;25.33;;;12.48;;
74459;SDS011;62902;48.854;9.292;2022-10-14T01:01:50;23.70;;;11.52;;
74459;SDS011;62902;48.854;9.292;2022-10-14T01:04:17;23.08;;;12.65;;
74459;SDS011;62902;48.854;9.292;2022-10-14T01:09:51;25.55;;;11.93;;
74459;SDS011;62902;48.854;9.292;2022-10-14T01:12:24;25.67;;;12.55;;
74459;SDS011;62902;48.854;9.292;2022-10-14T01:15:14;22.45;;;11.75;;
74459;SDS011;62902;48.854;9.292;2022-10-14T01:23:20;22.17;;;11.43;;
74459;SDS011;62902;48.854;9.292;2022-10-14T01:28:50;24.38;;;11.90;;
74459;SDS011;62902;48.854;9.292;2022-10-14T01:31:27;21.52;;;11.07;;
74459;SDS011;62902;48.854;9.292;2022-10-14T01:33:57;18.95;;;11.60;;
74459;SDS011;62902;48.854;9.292;2022-10-14T01:39:00;22.02;;;10.43;;
74459;SDS011;62902;48.854;9.292;2022-10-14T01:41:31;19.88;;;10.68;;
74459;SDS011;62902;48.854;9.292;2022-10-14T01:44:02;20.55;;;11.68;;
74459;SDS011;62902;48.854;9.292;2022-10-14T01:46:29;17.25;;;10.73;;
74459;SDS011;62902;48.854;9.292;2022-10-14T01:48:59;21.10;;;11.02;;
74459;SDS011;62902;48.854;9.292;2022-10-14T01:54:30;19.33;;;10.55;;
74459;SDS011;62902;48.854;9.292;2022-10-14T01:56:58;19.08;;;11.40;;
74459;SDS011;62902;48.854;9.292;2022-10-14T01:59:29;26.13;;;12.50;;
74459;SDS011;62902;48.854;9.292;2022-10-14T02:01:56;23.75;;;11.77;;
74459;SDS011;62902;48.854;9.292;2022-10-14T02:04:23;23.88;;;11.50;;
74459;SDS011;62902;48.854;9.292;2022-10-14T02:18:25;23.83;;;11.70;;
74459;SDS011;62902;48.854;9.292;2022-10-14T02:23:25;21.42;;;11.18;;
74459;SDS011;62902;48.854;9.292;2022-10-14T02:25:54;18.90;;;10.57;;
74459;SDS011;62902;48.854;9.292;2022-10-14T02:28:22;23.80;;;11.83;;
74459;SDS011;62902;48.854;9.292;2022-10-14T02:30:59;22.25;;;15.18;;
74459;SDS011;62902;48.854;9.292;2022-10-14T02:33:30;20.05;;;11.85;;
74459;SDS011;62902;48.854;9.292;2022-10-14T02:36:00;21.67;;;11.85;;
74459;SDS011;62902;48.854;9.292;2022-10-14T02:38:27;23.30;;;11.13;;
74459;SDS011;62902;48.854;9.292;2022-10-14T02:40:55;16.23;;;10.23;;
74459;SDS011;62902;48.854;9.292;2022-10-14T02:43:22;18.58;;;9.88;;
74459;SDS011;62902;48.854;9.292;2022-10-14T02:45:49;16.65;;;10.23;;
74459;SDS011;62902;48.854;9.292;2022-10-14T02:48:23;17.48;;;10.55;;
74459;SDS011;62902;48.854;9.292;2022-10-14T02:50:49;18.80;;;10.05;;
74459;SDS011;62902;48.854;9.292;2022-10-14T02:53:16;21.63;;;11.05;;
74459;SDS011;62902;48.854;9.292;2022-10-14T02:55:44;19.17;;;10.82;;
74459;SDS011;62902;48.854;9.292;2022-10-14T02:58:10;16.38;;;9.93;;
74459;SDS011;62902;48.854;9.292;2022-10-14T03:00:37;17.88;;;9.27;;
74459;SDS011;62902;48.854;9.292;2022-10-14T03:03:04;18.15;;;7.93;;
74459;SDS011;62902;48.854;9.292;2022-10-14T03:05:30;14.15;;;8.52;;
74459;SDS011;62902;48.854;9.292;2022-10-14T03:07:57;14.50;;;8.10;;
74459;SDS011;62902;48.854;9.292;2022-10-14T03:10:26;19.67;;;7.93;;
74459;SDS011;62902;48.854;9.292;2022-10-14T03:12:53;17.63;;;7.22;;
74459;SDS011;62902;48.854;9.292;2022-10-14T03:15:28;14.73;;;6.38;;
74459;SDS011;62902;48.854;9.292;2022-10-14T03:17:55;13.73;;;6.15;;
74459;SDS011;62902;48.854;9.292;2022-10-14T03:20:31;12.60;;;6.53;;
74459;SDS011;62902;48.854;9.292;2022-10-14T03:22:59;12.60;;;6.22;;
74459;SDS011;62902;48.854;9.292;2022-10-14T03:25:26;11.63;;;5.85;;
74459;SDS011;62902;48.854;9.292;2022-10-14T03:30:46;12.95;;;6.40;;
74459;SDS011;62902;48.854;9.292;2022-10-14T03:33:18;13.60;;;6.75;;
74459;SDS011;62902;48.854;9.292;2022-10-14T03:35:52;12.07;;;7.75;;
74459;SDS011;62902;48.854;9.292;2022-10-14T03:38:27;16.77;;;8.23;;
74459;SDS011;62902;48.854;9.292;2022-10-14T03:40:57;17.55;;;8.80;;
74459;SDS011;62902;48.854;9.292;2022-10-14T03:43:24;14.43;;;8.77;;
74459;SDS011;62902;48.854;9.292;2022-10-14T03:45:55;14.50;;;8.50;;
74459;SDS011;62902;48.854;9.292;2022-10-14T03:48:23;14.05;;;8.93;;
74459;SDS011;62902;48.854;9.292;2022-10-14T03:50:54;17.15;;;8.65;;
74459;SDS011;62902;48.854;9.292;2022-10-14T03:53:22;14.55;;;7.85;;
74459;SDS011;62902;48.854;9.292;2022-10-14T03:55:49;12.73;;;7.65;;
74459;SDS011;62902;48.854;9.292;2022-10-14T03:58:16;11.45;;;6.97;;
74459;SDS011;62902;48.854;9.292;2022-10-14T04:00:51;11.63;;;7.07;;
74459;SDS011;62902;48.854;9.292;2022-10-14T04:03:36;14.85;;;8.02;;
74459;SDS011;62902;48.854;9.292;2022-10-14T04:06:03;17.67;;;7.85;;
74459;SDS011;62902;48.854;9.292;2022-10-14T04:08:30;11.57;;;7.10;;
74459;SDS011;62902;48.854;9.292;2022-10-14T04:13:35;16.50;;;7.20;;
74459;SDS011;62902;48.854;9.292;2022-10-14T04:16:06;13.35;;;7.35;;
74459;SDS011;62902;48.854;9.292;2022-10-14T04:18:53;13.60;;;6.95;;
74459;SDS011;62902;48.854;9.292;2022-10-14T04:21:21;14.43;;;6.88;;
74459;SDS011;62902;48.854;9.292;2022-10-14T04:23:50;15.63;;;8.20;;
74459;SDS011;62902;48.854;9.292;2022-10-14T04:26:19;12.35;;;7.68;;
74459;SDS011;62902;48.854;9.292;2022-10-14T04:28:46;18.58;;;8.10;;
74459;SDS011;62902;48.854;9.292;2022-10-14T04:31:26;16.92;;;8.23;;
74459;SDS011;62902;48.854;9.292;2022-10-14T04:33:58;13.98;;;7.68;;
74459;SDS011;62902;48.854;9.292;2022-10-14T04:36:30;18.17;;;9.38;;
74459;SDS011;62902;48.854;9.292;2022-10-14T04:38:59;16.63;;;8.85;;
74459;SDS011;62902;48.854;9.292;2022-10-14T04:41:27;14.65;;;8.68;;
74459;SDS011;62902;48.854;9.292;2022-10-14T04:43:56;16.55;;;8.38;;
74459;SDS011;62902;48.854;9.292;2022-10-14T04:46:28;14.18;;;7.85;;
74459;SDS011;62902;48.854;9.292;2022-10-14T04:48:56;15.20;;;7.57;;
74459;SDS011;62902;48.854;9.292;2022-10-14T04:51:27;15.45;;;7.65;;
74459;SDS011;62902;48.854;9.292;2022-10-14T04:54:17;16.02;;;8.43;;
74459;SDS011;62902;48.854;9.292;2022-10-14T04:56:51;13.07;;;7.03;;
74459;SDS011;62902;48.854;9.292;2022-10-14T04:59:18;18.23;;;7.97;;
74459;SDS011;62902;48.854;9.292;2022-10-14T05:02:11;14.15;;;7.70;;
74459;SDS011;62902;48.854;9.292;2022-10-14T05:04:44;13.32;;;8.00;;
74459;SDS011;62902;48.854;9.292;2022-10-14T05:07:11;14.48;;;7.45;;
74459;SDS011;62902;48.854;9.292;2022-10-14T05:09:39;24.95;;;9.02;;
74459;SDS011;62902;48.854;9.292;2022-10-14T05:12:21;17.65;;;7.35;;
74459;SDS011;62902;48.854;9.292;2022-10-14T05:14:52;13.27;;;7.25;;
74459;SDS011;62902;48.854;9.292;2022-10-14T05:17:30;13.60;;;7.65;;
74459;SDS011;62902;48.854;9.292;2022-10-14T05:19:58;18.02;;;8.55;;
74459;SDS011;62902;48.854;9.292;2022-10-14T05:22:26;14.38;;;7.68;;
74459;SDS011;62902;48.854;9.292;2022-10-14T05:24:53;19.70;;;8.63;;
74459;SDS011;62902;48.854;9.292;2022-10-14T05:27:19;14.73;;;8.23;;
74459;SDS011;62902;48.854;9.292;2022-10-14T05:29:46;14.43;;;8.02;;
74459;SDS011;62902;48.854;9.292;2022-10-14T05:32:14;16.08;;;7.90;;
74459;SDS011;62902;48.854;9.292;2022-10-14T05:34:44;14.68;;;7.95;;
74459;SDS011;62902;48.854;9.292;2022-10-14T05:37:24;15.88;;;7.60;;
74459;SDS011;62902;48.854;9.292;2022-10-14T05:39:53;16.95;;;8.93;;
74459;SDS011;62902;48.854;9.292;2022-10-14T05:42:23;19.40;;;8.35;;
74459;SDS011;62902;48.854;9.292;2022-10-14T05:44:53;15.35;;;8.30;;
74459;SDS011;62902;48.854;9.292;2022-10-14T05:47:21;15.48;;;8.70;;
74459;SDS011;62902;48.854;9.292;2022-10-14T05:49:52;15.50;;;8.43;;
74459;SDS011;62902;48.854;9.292;2022-10-14T05:54:47;17.67;;;7.75;;
74459;SDS011;62902;48.854;9.292;2022-10-14T05:57:17;15.50;;;8.20;;
74459;SDS011;62902;48.854;9.292;2022-10-14T05:59:45;15.85;;;8.32;;
74459;SDS011;62902;48.854;9.292;2022-10-14T06:04:40;14.90;;;7.85;;
74459;SDS011;62902;48.854;9.292;2022-10-14T06:07:07;18.77;;;8.02;;
74459;SDS011;62902;48.854;9.292;2022-10-14T06:09:36;17.75;;;9.10;;
74459;SDS011;62902;48.854;9.292;2022-10-14T06:12:03;15.63;;;8.73;;
74459;SDS011;62902;48.854;9.292;2022-10-14T06:14:31;16.50;;;9.82;;
74459;SDS011;62902;48.854;9.292;2022-10-14T06:16:58;15.93;;;9.20;;
74459;SDS011;62902;48.854;9.292;2022-10-14T06:19:25;19.98;;;9.30;;
74459;SDS011;62902;48.854;9.292;2022-10-14T06:21:51;15.68;;;8.40;;
74459;SDS011;62902;48.854;9.292;2022-10-14T06:24:18;16.77;;;8.70;;
74459;SDS011;62902;48.854;9.292;2022-10-14T06:26:45;15.68;;;8.30;;
74459;SDS011;62902;48.854;9.292;2022-10-14T06:29:13;18.42;;;8.90;;
74459;SDS011;62902;48.854;9.292;2022-10-14T06:31:41;14.00;;;8.23;;
74459;SDS011;62902;48.854;9.292;2022-10-14T06:34:07;18.33;;;9.48;;
74459;SDS011;62902;48.854;9.292;2022-10-14T06:36:35;19.05;;;9.15;;
74459;SDS011;62902;48.854;9.292;2022-10-14T06:41:29;16.95;;;9.45;;
74459;SDS011;62902;48.854;9.292;2022-10-14T06:43:58;17.20;;;9.70;;
74459;SDS011;62902;48.854;9.292;2022-10-14T06:46:25;17.50;;;10.13;;
74459;SDS011;62902;48.854;9.292;2022-10-14T06:48:52;19.85;;;10.93;;
74459;SDS011;62902;48.854;9.292;2022-10-14T06:51:18;20.65;;;11.13;;
74459;SDS011;62902;48.854;9.292;2022-10-14T06:53:45;18.67;;;10.73;;
74459;SDS011;62902;48.854;9.292;2022-10-14T06:56:11;21.92;;;11.57;;
74459;SDS011;62902;48.854;9.292;2022-10-14T06:58:38;19.90;;;11.50;;
74459;SDS011;62902;48.854;9.292;2022-10-14T07:01:05;22.75;;;11.07;;
74459;SDS011;62902;48.854;9.292;2022-10-14T07:03:33;17.67;;;9.77;;
74459;SDS011;62902;48.854;9.292;2022-10-14T07:06:02;21.58;;;10.60;;
74459;SDS011;62902;48.854;9.292;2022-10-14T07:10:56;18.75;;;9.98;;
74459;SDS011;62902;48.854;9.292;2022-10-14T07:13:22;20.08;;;10.82;;
74459;SDS011;62902;48.854;9.292;2022-10-14T07:15:50;15.20;;;9.57;;
74459;SDS011;62902;48.854;9.292;2022-10-14T07:18:18;19.77;;;10.30;;
74459;SDS011;62902;48.854;9.292;2022-10-14T07:20:44;20.30;;;9.40;;
74459;SDS011;62902;48.854;9.292;2022-10-14T07:23:11;16.52;;;8.65;;
74459;SDS011;62902;48.854;9.292;2022-10-14T07:25:38;18.42;;;8.68;;
74459;SDS011;62902;48.854;9.292;2022-10-14T07:28:05;16.45;;;9.32;;
74459;SDS011;62902;48.854;9.292;2022-10-14T07:30:32;14.93;;;8.20;;
74459;SDS011;62902;48.854;9.292;2022-10-14T07:32:59;15.00;;;7.85;;
74459;SDS011;62902;48.854;9.292;2022-10-14T07:35:25;16.75;;;8.55;;
74459;SDS011;62902;48.854;9.292;2022-10-14T07:37:52;14.00;;;8.13;;
74459;SDS011;62902;48.854;9.292;2022-10-14T07:40:19;13.70;;;8.23;;
74459;SDS011;62902;48.854;9.292;2022-10-14T07:42:46;20.00;;;8.77;;
74459;SDS011;62902;48.854;9.292;2022-10-14T07:45:13;12.63;;;8.25;;
74459;SDS011;62902;48.854;9.292;2022-10-14T07:47:42;14.57;;;8.82;;
74459;SDS011;62902;48.854;9.292;2022-10-14T07:50:09;15.25;;;8.20;;
74459;SDS011;62902;48.854;9.292;2022-10-14T07:52:36;12.65;;;7.63;;
74459;SDS011;62902;48.854;9.292;2022-10-14T07:55:03;16.90;;;8.63;;
74459;SDS011;62902;48.854;9.292;2022-10-14T07:57:30;18.42;;;8.02;;
74459;SDS011;62902;48.854;9.292;2022-10-14T07:59:57;18.30;;;8.27;;
74459;SDS011;62902;48.854;9.292;2022-10-14T08:02:23;15.40;;;7.90;;
74459;SDS011;62902;48.854;9.292;2022-10-14T08:04:51;17.33;;;8.30;;
74459;SDS011;62902;48.854;9.292;2022-10-14T08:07:18;15.75;;;8.82;;
74459;SDS011;62902;48.854;9.292;2022-10-14T08:09:45;15.93;;;9.00;;
74459;SDS011;62902;48.854;9.292;2022-10-14T08:12:12;14.70;;;8.32;;
74459;SDS011;62902;48.854;9.292;2022-10-14T08:14:39;11.07;;;7.28;;
74459;SDS011;62902;48.854;9.292;2022-10-14T08:17:05;12.95;;;6.90;;
74459;SDS011;62902;48.854;9.292;2022-10-14T08:19:32;12.10;;;6.38;;
74459;SDS011;62902;48.854;9.292;2022-10-14T08:21:59;12.63;;;6.82;;
74459;SDS011;62902;48.854;9.292;2022-10-14T08:24:25;15.85;;;7.05;;
74459;SDS011;62902;48.854;9.292;2022-10-14T08:26:53;12.77;;;7.40;;
74459;SDS011;62902;48.854;9.292;2022-10-14T08:29:22;12.98;;;6.93;;
74459;SDS011;62902;48.854;9.292;2022-10-14T08:31:49;15.45;;;7.13;;
74459;SDS011;62902;48.854;9.292;2022-10-14T08:34:16;17.15;;;8.88;;
74459;SDS011;62902;48.854;9.292;2022-10-14T08:36:46;12.82;;;7.32;;
74459;SDS011;62902;48.854;9.292;2022-10-14T08:41:44;12.30;;;6.63;;
74459;SDS011;62902;48.854;9.292;2022-10-14T08:44:39;11.57;;;6.45;;
74459;SDS011;62902;48.854;9.292;2022-10-14T08:47:10;11.75;;;6.18;;
74459;SDS011;62902;48.854;9.292;2022-10-14T08:54:51;14.88;;;7.03;;
74459;SDS011;62902;48.854;9.292;2022-10-14T08:57:22;12.65;;;6.72;;
74459;SDS011;62902;48.854;9.292;2022-10-14T08:59:51;13.00;;;7.45;;
74459;SDS011;62902;48.854;9.292;2022-10-14T09:04:54;10.40;;;6.07;;
74459;SDS011;62902;48.854;9.292;2022-10-14T09:07:22;12.15;;;6.95;;
74459;SDS011;62902;48.854;9.292;2022-10-14T09:09:49;12.60;;;6.90;;
74459;SDS011;62902;48.854;9.292;2022-10-14T09:12:25;14.07;;;7.50;;
74459;SDS011;62902;48.854;9.292;2022-10-14T09:15:37;14.65;;;7.20;;
74459;SDS011;62902;48.854;9.292;2022-10-14T09:17:55;15.20;;;6.75;;
74459;SDS011;62902;48.854;9.292;2022-10-14T09:20:36;10.23;;;5.95;;
74459;SDS011;62902;48.854;9.292;2022-10-14T09:25:33;9.68;;;5.93;;
74459;SDS011;62902;48.854;9.292;2022-10-14T09:28:00;10.48;;;5.55;;
74459;SDS011;62902;48.854;9.292;2022-10-14T09:30:27;12.88;;;6.05;;
74459;SDS011;62902;48.854;9.292;2022-10-14T09:32:55;11.25;;;5.10;;
74459;SDS011;62902;48.854;9.292;2022-10-14T09:35:32;9.65;;;5.18;;
74459;SDS011;62902;48.854;9.292;2022-10-14T09:38:00;8.23;;;4.68;;
74459;SDS011;62902;48.854;9.292;2022-10-14T09:40:37;14.05;;;5.50;;
74459;SDS011;62902;48.854;9.292;2022-10-14T09:51:06;9.13;;;4.80;;
74459;SDS011;62902;48.854;9.292;2022-10-14T09:53:48;8.75;;;4.45;;
74459;SDS011;62902;48.854;9.292;2022-10-14T09:56:26;8.10;;;4.45;;
74459;SDS011;62902;48.854;9.292;2022-10-14T09:58:54;9.02;;;3.90;;
74459;SDS011;62902;48.854;9.292;2022-10-14T10:03:50;8.00;;;3.72;;
74459;SDS011;62902;48.854;9.292;2022-10-14T10:06:19;9.90;;;3.83;;
74459;SDS011;62902;48.854;9.292;2022-10-14T10:11:30;9.35;;;4.25;;
74459;SDS011;62902;48.854;9.292;2022-10-14T10:14:14;7.90;;;4.03;;
74459;SDS011;62902;48.854;9.292;2022-10-14T10:16:42;8.48;;;4.47;;
74459;SDS011;62902;48.854;9.292;2022-10-14T10:19:28;9.15;;;4.50;;
74459;SDS011;62902;48.854;9.292;2022-10-14T10:22:14;8.75;;;3.90;;
74459;SDS011;62902;48.854;9.292;2022-10-14T10:24:51;9.23;;;4.60;;
74459;SDS011;62902;48.854;9.292;2022-10-14T10:32:41;7.60;;;3.90;;
74459;SDS011;62902;48.854;9.292;2022-10-14T10:35:15;8.50;;;4.00;;
74459;SDS011;62902;48.854;9.292;2022-10-14T10:40:39;6.55;;;3.95;;
74459;SDS011;62902;48.854;9.292;2022-10-14T10:44:02;9.05;;;4.22;;
74459;SDS011;62902;48.854;9.292;2022-10-14T10:46:11;8.75;;;4.50;;
74459;SDS011;62902;48.854;9.292;2022-10-14T10:49:04;6.75;;;3.80;;
74459;SDS011;62902;48.854;9.292;2022-10-14T10:51:39;11.75;;;4.55;;
74459;SDS011;62902;48.854;9.292;2022-10-14T10:54:25;8.02;;;3.97;;
74459;SDS011;62902;48.854;9.292;2022-10-14T10:57:08;9.20;;;4.43;;
74459;SDS011;62902;48.854;9.292;2022-10-14T10:59:49;7.15;;;4.55;;
74459;SDS011;62902;48.854;9.292;2022-10-14T11:07:48;6.72;;;3.60;;
74459;SDS011;62902;48.854;9.292;2022-10-14T11:13:38;12.73;;;4.00;;
74459;SDS011;62902;48.854;9.292;2022-10-14T11:16:18;10.00;;;4.50;;
74459;SDS011;62902;48.854;9.292;2022-10-14T11:19:14;7.28;;;3.45;;
74459;SDS011;62902;48.854;9.292;2022-10-14T11:21:42;11.23;;;4.10;;
74459;SDS011;62902;48.854;9.292;2022-10-14T11:24:22;11.70;;;3.92;;
74459;SDS011;62902;48.854;9.292;2022-10-14T11:27:04;7.70;;;3.65;;
74459;SDS011;62902;48.854;9.292;2022-10-14T11:35:20;10.23;;;4.50;;
74459;SDS011;62902;48.854;9.292;2022-10-14T11:46:08;10.20;;;4.53;;
74459;SDS011;62902;48.854;9.292;2022-10-14T11:51:30;13.30;;;5.88;;
74459;SDS011;62902;48.854;9.292;2022-10-14T11:56:38;12.57;;;5.93;;
74459;SDS011;62902;48.854;9.292;2022-10-14T12:02:31;9.80;;;5.28;;
74459;SDS011;62902;48.854;9.292;2022-10-14T12:07:45;10.68;;;5.20;;
74459;SDS011;62902;48.854;9.292;2022-10-14T12:10:46;10.23;;;5.57;;
74459;SDS011;62902;48.854;9.292;2022-10-14T12:13:15;10.77;;;5.38;;
74459;SDS011;62902;48.854;9.292;2022-10-14T12:15:46;10.65;;;6.00;;
74459;SDS011;62902;48.854;9.292;2022-10-14T12:18:15;14.18;;;5.32;;
74459;SDS011;62902;48.854;9.292;2022-10-14T12:23:25;9.63;;;5.57;;
74459;SDS011;62902;48.854;9.292;2022-10-14T12:28:45;10.05;;;5.63;;
74459;SDS011;62902;48.854;9.292;2022-10-14T12:36:39;9.88;;;6.00;;
74459;SDS011;62902;48.854;9.292;2022-10-14T12:41:59;8.27;;;4.40;;
74459;SDS011;62902;48.854;9.292;2022-10-14T12:47:20;5.57;;;2.72;;
74459;SDS011;62902;48.854;9.292;2022-10-14T12:49:53;7.32;;;3.03;;
74459;SDS011;62902;48.854;9.292;2022-10-14T12:52:26;6.90;;;2.90;;
74459;SDS011;62902;48.854;9.292;2022-10-14T12:55:04;4.20;;;2.42;;
74459;SDS011;62902;48.854;9.292;2022-10-14T12:57:38;6.13;;;2.47;;
74459;SDS011;62902;48.854;9.292;2022-10-14T13:02:47;6.00;;;2.40;;
74459;SDS011;62902;48.854;9.292;2022-10-14T13:05:32;4.50;;;2.33;;
74459;SDS011;62902;48.854;9.292;2022-10-14T13:08:21;4.30;;;2.25;;
74459;SDS011;62902;48.854;9.292;2022-10-14T13:18:53;4.80;;;1.90;;
74459;SDS011;62902;48.854;9.292;2022-10-14T13:22:03;5.20;;;2.20;;
74459;SDS011;62902;48.854;9.292;2022-10-14T13:26:50;5.90;;;2.00;;
74459;SDS011;62902;48.854;9.292;2022-10-14T13:29:25;3.42;;;1.67;;
74459;SDS011;62902;48.854;9.292;2022-10-14T13:35:12;6.95;;;2.20;;
74459;SDS011;62902;48.854;9.292;2022-10-14T13:37:45;7.50;;;1.98;;
74459;SDS011;62902;48.854;9.292;2022-10-14T13:40:24;3.55;;;1.77;;
74459;SDS011;62902;48.854;9.292;2022-10-14T13:42:58;3.67;;;1.83;;
74459;SDS011;62902;48.854;9.292;2022-10-14T13:45:37;7.15;;;1.80;;
74459;SDS011;62902;48.854;9.292;2022-10-14T13:48:12;5.55;;;2.13;;
74459;SDS011;62902;48.854;9.292;2022-10-14T13:50:42;5.95;;;2.75;;
74459;SDS011;62902;48.854;9.292;2022-10-14T13:53:14;5.78;;;2.03;;
74459;SDS011;62902;48.854;9.292;2022-10-14T13:55:43;7.45;;;2.00;;
74459;SDS011;62902;48.854;9.292;2022-10-14T13:58:19;5.97;;;1.95;;
74459;SDS011;62902;48.854;9.292;2022-10-14T14:00:57;4.22;;;1.73;;
74459;SDS011;62902;48.854;9.292;2022-10-14T14:06:13;4.65;;;1.52;;
74459;SDS011;62902;48.854;9.292;2022-10-14T14:08:47;3.60;;;1.50;;
74459;SDS011;62902;48.854;9.292;2022-10-14T14:16:35;3.50;;;1.60;;
74459;SDS011;62902;48.854;9.292;2022-10-14T14:19:05;4.78;;;1.63;;
74459;SDS011;62902;48.854;9.292;2022-10-14T14:21:36;3.75;;;1.23;;
74459;SDS011;62902;48.854;9.292;2022-10-14T14:24:07;3.13;;;1.25;;
74459;SDS011;62902;48.854;9.292;2022-10-14T14:26:48;3.35;;;1.42;;
74459;SDS011;62902;48.854;9.292;2022-10-14T14:29:22;5.60;;;1.20;;
74459;SDS011;62902;48.854;9.292;2022-10-14T14:31:54;7.93;;;1.77;;
74459;SDS011;62902;48.854;9.292;2022-10-14T14:34:40;3.75;;;1.40;;
74459;SDS011;62902;48.854;9.292;2022-10-14T14:37:13;7.75;;;2.08;;
74459;SDS011;62902;48.854;9.292;2022-10-14T14:42:58;3.78;;;1.50;;
74459;SDS011;62902;48.854;9.292;2022-10-14T14:45:27;3.60;;;1.45;;
74459;SDS011;62902;48.854;9.292;2022-10-14T14:47:56;3.75;;;1.58;;
74459;SDS011;62902;48.854;9.292;2022-10-14T14:50:28;3.88;;;1.75;;
74459;SDS011;62902;48.854;9.292;2022-10-14T14:53:02;5.78;;;1.70;;
74459;SDS011;62902;48.854;9.292;2022-10-14T14:58:06;4.35;;;1.45;;
74459;SDS011;62902;48.854;9.292;2022-10-14T15:00:48;5.10;;;1.50;;
74459;SDS011;62902;48.854;9.292;2022-10-14T15:03:16;4.70;;;1.77;;
74459;SDS011;62902;48.854;9.292;2022-10-14T15:05:50;3.30;;;1.60;;
74459;SDS011;62902;48.854;9.292;2022-10-14T15:08:20;6.13;;;1.70;;
74459;SDS011;62902;48.854;9.292;2022-10-14T15:10:49;4.75;;;1.90;;
74459;SDS011;62902;48.854;9.292;2022-10-14T15:16:05;7.63;;;2.60;;
74459;SDS011;62902;48.854;9.292;2022-10-14T15:18:32;5.43;;;1.55;;
74459;SDS011;62902;48.854;9.292;2022-10-14T15:23:42;5.05;;;2.10;;
74459;SDS011;62902;48.854;9.292;2022-10-14T15:26:29;4.22;;;2.03;;
74459;SDS011;62902;48.854;9.292;2022-10-14T15:31:28;3.80;;;2.08;;
74459;SDS011;62902;48.854;9.292;2022-10-14T15:33:55;6.30;;;2.58;;
74459;SDS011;62902;48.854;9.292;2022-10-14T15:36:21;4.65;;;1.98;;
74459;SDS011;62902;48.854;9.292;2022-10-14T15:38:48;5.47;;;2.10;;
74459;SDS011;62902;48.854;9.292;2022-10-14T15:41:16;8.18;;;2.45;;
74459;SDS011;62902;48.854;9.292;2022-10-14T15:43:43;6.32;;;2.40;;
74459;SDS011;62902;48.854;9.292;2022-10-14T15:46:11;5.55;;;2.40;;
74459;SDS011;62902;48.854;9.292;2022-10-14T15:48:56;4.65;;;2.25;;
74459;SDS011;62902;48.854;9.292;2022-10-14T15:51:24;8.05;;;2.05;;
74459;SDS011;62902;48.854;9.292;2022-10-14T15:53:55;6.13;;;2.13;;
74459;SDS011;62902;48.854;9.292;2022-10-14T15:56:22;4.60;;;1.95;;
74459;SDS011;62902;48.854;9.292;2022-10-14T15:58:49;4.35;;;1.42;;
74459;SDS011;62902;48.854;9.292;2022-10-14T16:01:16;3.45;;;1.60;;
74459;SDS011;62902;48.854;9.292;2022-10-14T16:03:46;4.70;;;1.60;;
74459;SDS011;62902;48.854;9.292;2022-10-14T16:06:13;6.90;;;1.40;;
74459;SDS011;62902;48.854;9.292;2022-10-14T16:16:09;3.90;;;1.65;;
74459;SDS011;62902;48.854;9.292;2022-10-14T16:18:37;3.05;;;1.40;;
74459;SDS011;62902;48.854;9.292;2022-10-14T16:21:04;5.70;;;1.83;;
74459;SDS011;62902;48.854;9.292;2022-10-14T16:23:32;6.43;;;1.90;;
74459;SDS011;62902;48.854;9.292;2022-10-14T16:25:59;3.88;;;1.55;;
74459;SDS011;62902;48.854;9.292;2022-10-14T16:28:26;3.67;;;1.45;;
74459;SDS011;62902;48.854;9.292;2022-10-14T16:30:53;4.95;;;1.85;;
74459;SDS011;62902;48.854;9.292;2022-10-14T16:33:20;3.60;;;1.50;;
74459;SDS011;62902;48.854;9.292;2022-10-14T16:35:51;3.55;;;1.73;;
74459;SDS011;62902;48.854;9.292;2022-10-14T16:38:19;4.90;;;1.63;;
74459;SDS011;62902;48.854;9.292;2022-10-14T16:40:55;3.78;;;1.67;;
74459;SDS011;62902;48.854;9.292;2022-10-14T16:43:23;6.25;;;1.70;;
74459;SDS011;62902;48.854;9.292;2022-10-14T16:45:50;4.15;;;1.60;;
74459;SDS011;62902;48.854;9.292;2022-10-14T16:48:17;3.10;;;1.58;;
74459;SDS011;62902;48.854;9.292;2022-10-14T16:50:48;3.78;;;1.35;;
74459;SDS011;62902;48.854;9.292;2022-10-14T16:53:16;4.57;;;1.60;;
74459;SDS011;62902;48.854;9.292;2022-10-14T16:56:01;6.82;;;2.03;;
74459;SDS011;62902;48.854;9.292;2022-10-14T16:58:28;3.22;;;1.67;;
74459;SDS011;62902;48.854;9.292;2022-10-14T17:00:54;4.38;;;1.63;;
74459;SDS011;62902;48.854;9.292;2022-10-14T17:03:21;3.88;;;1.75;;
74459;SDS011;62902;48.854;9.292;2022-10-14T17:05:55;8.13;;;1.70;;
74459;SDS011;62902;48.854;9.292;2022-10-14T17:08:22;4.70;;;1.83;;
74459;SDS011;62902;48.854;9.292;2022-10-14T17:10:55;4.57;;;2.05;;
74459;SDS011;62902;48.854;9.292;2022-10-14T17:13:23;3.72;;;1.85;;
74459;SDS011;62902;48.854;9.292;2022-10-14T17:15:49;5.53;;;2.00;;
74459;SDS011;62902;48.854;9.292;2022-10-14T17:18:23;5.78;;;2.00;;
74459;SDS011;62902;48.854;9.292;2022-10-14T17:20:58;3.63;;;1.70;;
74459;SDS011;62902;48.854;9.292;2022-10-14T17:23:34;5.65;;;1.52;;
74459;SDS011;62902;48.854;9.292;2022-10-14T17:26:02;3.75;;;1.70;;
74459;SDS011;62902;48.854;9.292;2022-10-14T17:28:31;6.32;;;1.70;;
74459;SDS011;62902;48.854;9.292;2022-10-14T17:30:58;5.30;;;1.60;;
74459;SDS011;62902;48.854;9.292;2022-10-14T17:33:26;4.22;;;1.60;;
74459;SDS011;62902;48.854;9.292;2022-10-14T17:35:56;4.43;;;1.65;;
74459;SDS011;62902;48.854;9.292;2022-10-14T17:38:24;3.78;;;1.38;;
74459;SDS011;62902;48.854;9.292;2022-10-14T17:40:51;7.15;;;1.75;;
74459;SDS011;62902;48.854;9.292;2022-10-14T17:43:19;3.45;;;1.65;;
74459;SDS011;62902;48.854;9.292;2022-10-14T17:45:46;5.10;;;1.60;;
74459;SDS011;62902;48.854;9.292;2022-10-14T17:48:15;4.78;;;2.03;;
74459;SDS011;62902;48.854;9.292;2022-10-14T17:50:42;5.38;;;1.83;;
74459;SDS011;62902;48.854;9.292;2022-10-14T17:53:12;4.07;;;1.40;;
74459;SDS011;62902;48.854;9.292;2022-10-14T17:55:39;4.53;;;2.05;;
74459;SDS011;62902;48.854;9.292;2022-10-14T17:58:06;6.45;;;2.45;;